Gevgelija, Macedonia
Current Conditions -  °F | °C
As of 10:50 AM on Thursday 23 Oct 2014 (Local Time) from LGTS Reporting Station
Broken Clouds Broken Clouds  
Wind Chill: 55°   Ceiling: 7000
Heat Index: 55°   Visibility: 6mi
Dew Point: 48°   Wind: 16mph
Humidity: 77%   Direction: 330°NNW
Pressure: 29.5"   Gusts: NA
Location:  41.15°N, 22.51°E
Report Text: LGTS 230850Z 33014KT 9999 FEW018TCU SCT030 BKN070 13/09 Q0999 NOSIG
Loading
Personal Weather Stations






























Interactive Weather Map
Tropical Storm Tracking
New forecast layout! Learn more

10-Day Weather Forecast

Advertisements
Track Severe Weather on mobile